Serendipity II — ZCIP — position and weather

sailwx.info

Track history (hours):
 
Tides and Currents Weather Stations Pressure Air Temp Water Temp Dewpoint Dewpoint Depression Visibility Wind Speed Wind Dir Waves Ship Positions

Serendipity II

Last reported at 2016-Nov-04 14:33 UTC. Time now 2016-Dec-07 16:20 UTC.
Position N 25°57' W 080°05'.
Warning: this ship's position is 33 days out of date.

Length 39 m.

Type: Pleasure craft. MMSI: 319848000.

Date/timePositionNaut miles runAvg speedWind from/ knotsBaromVisibWave heightAir tempDewpointWater temp
2016-Nov-04 14:33N 25°57' W 080°05'10 4.8
2016-Nov-04 12:33N 26°06' W 080°10'1 0.3
2016-Nov-04 08:32N 26°05' W 080°11'0 0.0
2016-Nov-04 07:20N 26°05' W 080°11'0 0.0
2016-Nov-04 06:32N 26°05' W 080°11'  
2016-Nov-01 23:15N 26°05' W 080°11'0 0.0
2016-Nov-01 20:33N 26°05' W 080°11'0 0.0
2016-Nov-01 19:30N 26°05' W 080°11'0 0.0
2016-Nov-01 12:30N 26°05' W 080°11'0 0.0
2016-Nov-01 03:32N 26°05' W 080°11'0 0.0
2016-Nov-01 02:11N 26°05' W 080°11'0 0.0
2016-Nov-01 00:26N 26°05' W 080°11'0 0.0
2016-Oct-31 23:23N 26°05' W 080°11'0 0.0
2016-Oct-31 22:29N 26°05' W 080°11'0 0.0
2016-Oct-31 20:26N 26°05' W 080°11'0 0.0
2016-Oct-31 19:32N 26°05' W 080°11'0 0.0
2016-Oct-31 18:29N 26°05' W 080°11'0 0.0
2016-Oct-31 13:26N 26°05' W 080°11'0 0.0
2016-Oct-31 12:12N 26°05' W 080°11'0 0.0
2016-Oct-31 10:29N 26°05' W 080°11'0 0.0
2016-Oct-31 09:29N 26°05' W 080°11'0 0.0
2016-Oct-31 08:32N 26°05' W 080°11'0 0.0
2016-Oct-31 07:29N 26°05' W 080°11'0 0.0
2016-Oct-31 03:33N 26°05' W 080°11'0 0.0
2016-Oct-30 20:33N 26°05' W 080°11'0 0.0
2016-Oct-30 13:24N 26°05' W 080°11'0 0.0
2016-Oct-30 12:27N 26°05' W 080°11'0 0.0
2016-Oct-30 11:27N 26°05' W 080°11'0 0.0
2016-Oct-30 08:30N 26°05' W 080°11'0 0.0
2016-Oct-30 07:30N 26°05' W 080°11'0 0.0
2016-Oct-30 02:24N 26°05' W 080°11'0 0.0
2016-Oct-30 00:27N 26°05' W 080°11'0 0.0
2016-Oct-29 23:27N 26°05' W 080°11'0 0.0
2016-Oct-29 22:30N 26°05' W 080°11'1 0.7
2016-Oct-29 21:30N 26°06' W 080°11'1 0.7
2016-Oct-29 20:30N 26°05' W 080°11'0 0.0
2016-Oct-29 19:33N 26°05' W 080°11'0 0.0
2016-Oct-29 18:33N 26°05' W 080°11'0 0.0
2016-Oct-29 16:33N 26°05' W 080°11'0 0.0
2016-Oct-29 14:24N 26°05' W 080°11'0 0.0
2016-Oct-29 11:27N 26°05' W 080°11'0 0.0
2016-Oct-29 09:30N 26°05' W 080°11'0 0.0
2016-Oct-29 06:33N 26°05' W 080°11'0 0.0
2016-Oct-29 04:33N 26°05' W 080°11'0 0.0
2016-Oct-29 02:33N 26°05' W 080°11'0 0.0
2016-Oct-28 23:27N 26°05' W 080°11'0 0.0
2016-Oct-28 21:27N 26°05' W 080°11'0 0.0
2016-Oct-28 19:33N 26°05' W 080°11'0 0.0
2016-Oct-28 16:33N 26°05' W 080°11'0 0.0
2016-Oct-28 15:33N 26°05' W 080°11'0 0.0
2016-Oct-28 14:33N 26°05' W 080°11'0 0.0
2016-Oct-28 09:30N 26°05' W 080°11'0 0.0
2016-Oct-28 08:30N 26°05' W 080°11'0 0.0
2016-Oct-28 07:30N 26°05' W 080°11'0 0.0
2016-Oct-28 00:24N 26°05' W 080°11'0 0.0
2016-Oct-27 23:27N 26°05' W 080°11'0 0.0
2016-Oct-27 21:30N 26°05' W 080°11'0 0.0
2016-Oct-27 17:33N 26°05' W 080°11'0 0.0
2016-Oct-25 16:21N 26°05' W 080°11'0 0.0
2016-Oct-25 15:27N 26°05' W 080°11'  
Track history (hours):
 
Tides and Currents Weather Stations Pressure Air Temp Water Temp Dewpoint Dewpoint Depression Visibility Wind Speed Wind Dir Waves Ship Positions

Serendipity II

Last reported at 2016-Nov-04 14:33 UTC. Time now 2016-Dec-07 16:20 UTC.
Position N 25°57' W 080°05'.
Warning: this ship's position is 33 days out of date.

Length 39 m.

Type: Pleasure craft. MMSI: 319848000.

Date/timePositionNaut miles runAvg speedWind from/ knotsBaromVisibWave heightAir tempDewpointWater temp
2016-Nov-04 14:33N 25°57' W 080°05'10 4.8
2016-Nov-04 12:33N 26°06' W 080°10'1 0.3
2016-Nov-04 08:32N 26°05' W 080°11'0 0.0
2016-Nov-04 07:20N 26°05' W 080°11'0 0.0
2016-Nov-04 06:32N 26°05' W 080°11'  
2016-Nov-01 23:15N 26°05' W 080°11'0 0.0
2016-Nov-01 20:33N 26°05' W 080°11'0 0.0
2016-Nov-01 19:30N 26°05' W 080°11'0 0.0
2016-Nov-01 12:30N 26°05' W 080°11'0 0.0
2016-Nov-01 03:32N 26°05' W 080°11'0 0.0
2016-Nov-01 02:11N 26°05' W 080°11'0 0.0
2016-Nov-01 00:26N 26°05' W 080°11'0 0.0
2016-Oct-31 23:23N 26°05' W 080°11'0 0.0
2016-Oct-31 22:29N 26°05' W 080°11'0 0.0
2016-Oct-31 20:26N 26°05' W 080°11'0 0.0
2016-Oct-31 19:32N 26°05' W 080°11'0 0.0
2016-Oct-31 18:29N 26°05' W 080°11'0 0.0
2016-Oct-31 13:26N 26°05' W 080°11'0 0.0
2016-Oct-31 12:12N 26°05' W 080°11'0 0.0
2016-Oct-31 10:29N 26°05' W 080°11'0 0.0
2016-Oct-31 09:29N 26°05' W 080°11'0 0.0
2016-Oct-31 08:32N 26°05' W 080°11'0 0.0
2016-Oct-31 07:29N 26°05' W 080°11'0 0.0
2016-Oct-31 03:33N 26°05' W 080°11'0 0.0
2016-Oct-30 20:33N 26°05' W 080°11'0 0.0
2016-Oct-30 13:24N 26°05' W 080°11'0 0.0
2016-Oct-30 12:27N 26°05' W 080°11'0 0.0
2016-Oct-30 11:27N 26°05' W 080°11'0 0.0
2016-Oct-30 08:30N 26°05' W 080°11'0 0.0
2016-Oct-30 07:30N 26°05' W 080°11'0 0.0
2016-Oct-30 02:24N 26°05' W 080°11'0 0.0
2016-Oct-30 00:27N 26°05' W 080°11'0 0.0
2016-Oct-29 23:27N 26°05' W 080°11'0 0.0
2016-Oct-29 22:30N 26°05' W 080°11'1 0.7
2016-Oct-29 21:30N 26°06' W 080°11'1 0.7
2016-Oct-29 20:30N 26°05' W 080°11'0 0.0
2016-Oct-29 19:33N 26°05' W 080°11'0 0.0
2016-Oct-29 18:33N 26°05' W 080°11'0 0.0
2016-Oct-29 16:33N 26°05' W 080°11'0 0.0
2016-Oct-29 14:24N 26°05' W 080°11'0 0.0
2016-Oct-29 11:27N 26°05' W 080°11'0 0.0
2016-Oct-29 09:30N 26°05' W 080°11'0 0.0
2016-Oct-29 06:33N 26°05' W 080°11'0 0.0
2016-Oct-29 04:33N 26°05' W 080°11'0 0.0
2016-Oct-29 02:33N 26°05' W 080°11'0 0.0
2016-Oct-28 23:27N 26°05' W 080°11'0 0.0
2016-Oct-28 21:27N 26°05' W 080°11'0 0.0
2016-Oct-28 19:33N 26°05' W 080°11'0 0.0
2016-Oct-28 16:33N 26°05' W 080°11'0 0.0
2016-Oct-28 15:33N 26°05' W 080°11'0 0.0
2016-Oct-28 14:33N 26°05' W 080°11'0 0.0
2016-Oct-28 09:30N 26°05' W 080°11'0 0.0
2016-Oct-28 08:30N 26°05' W 080°11'0 0.0
2016-Oct-28 07:30N 26°05' W 080°11'0 0.0
2016-Oct-28 00:24N 26°05' W 080°11'0 0.0
2016-Oct-27 23:27N 26°05' W 080°11'0 0.0
2016-Oct-27 21:30N 26°05' W 080°11'0 0.0
2016-Oct-27 17:33N 26°05' W 080°11'0 0.0
2016-Oct-25 16:21N 26°05' W 080°11'0 0.0
2016-Oct-25 15:27N 26°05' W 080°11'  

Dump ship's entire track history